sensor_id;sensor_type;location;lat;lon;timestamp;temperature;humidity
7512;DHT22;9999;48.780;9.146;2023-04-24T00:01:07;10.40;99.90
7512;DHT22;9999;48.780;9.146;2023-04-24T00:03:36;10.40;99.90
7512;DHT22;9999;48.780;9.146;2023-04-24T00:06:04;10.40;99.90
7512;DHT22;9999;48.780;9.146;2023-04-24T00:08:32;10.50;99.90
7512;DHT22;9999;48.780;9.146;2023-04-24T00:10:59;10.50;99.90
7512;DHT22;9999;48.780;9.146;2023-04-24T00:13:26;10.40;99.90
7512;DHT22;9999;48.780;9.146;2023-04-24T00:15:53;10.40;99.90
7512;DHT22;9999;48.780;9.146;2023-04-24T00:18:20;10.50;99.90
7512;DHT22;9999;48.780;9.146;2023-04-24T00:20:48;10.50;99.90
7512;DHT22;9999;48.780;9.146;2023-04-24T00:23:15;10.50;99.90
7512;DHT22;9999;48.780;9.146;2023-04-24T00:25:42;10.50;99.90
7512;DHT22;9999;48.780;9.146;2023-04-24T00:28:09;10.50;99.90
7512;DHT22;9999;48.780;9.146;2023-04-24T00:30:36;10.50;99.90
7512;DHT22;9999;48.780;9.146;2023-04-24T00:33:03;10.60;99.90
7512;DHT22;9999;48.780;9.146;2023-04-24T00:35:29;10.60;99.90
7512;DHT22;9999;48.780;9.146;2023-04-24T00:37:57;10.60;99.90
7512;DHT22;9999;48.780;9.146;2023-04-24T00:40:24;10.60;99.90
7512;DHT22;9999;48.780;9.146;2023-04-24T00:42:51;10.60;99.90
7512;DHT22;9999;48.780;9.146;2023-04-24T00:45:18;10.60;99.90
7512;DHT22;9999;48.780;9.146;2023-04-24T00:47:45;10.60;99.90
7512;DHT22;9999;48.780;9.146;2023-04-24T00:50:14;10.60;99.90
7512;DHT22;9999;48.780;9.146;2023-04-24T00:52:41;10.60;99.90
7512;DHT22;9999;48.780;9.146;2023-04-24T00:55:10;10.60;99.90
7512;DHT22;9999;48.780;9.146;2023-04-24T00:57:37;10.60;99.90
7512;DHT22;9999;48.780;9.146;2023-04-24T01:00:05;10.60;99.90
7512;DHT22;9999;48.780;9.146;2023-04-24T01:02:38;10.60;99.90
7512;DHT22;9999;48.780;9.146;2023-04-24T01:05:09;10.60;99.90
7512;DHT22;9999;48.780;9.146;2023-04-24T01:07:38;10.60;99.90
7512;DHT22;9999;48.780;9.146;2023-04-24T01:10:06;10.60;99.90
7512;DHT22;9999;48.780;9.146;2023-04-24T01:12:35;10.60;99.90
7512;DHT22;9999;48.780;9.146;2023-04-24T01:15:02;10.60;99.90
7512;DHT22;9999;48.780;9.146;2023-04-24T01:17:30;10.70;99.90
7512;DHT22;9999;48.780;9.146;2023-04-24T01:19:58;10.70;99.90
7512;DHT22;9999;48.780;9.146;2023-04-24T01:22:27;10.70;99.90
7512;DHT22;9999;48.780;9.146;2023-04-24T01:24:54;10.70;99.90
7512;DHT22;9999;48.780;9.146;2023-04-24T01:27:21;10.70;99.90
7512;DHT22;9999;48.780;9.146;2023-04-24T01:29:48;10.70;99.90
7512;DHT22;9999;48.780;9.146;2023-04-24T01:32:17;10.70;99.90
7512;DHT22;9999;48.780;9.146;2023-04-24T01:34:46;10.70;99.90
7512;DHT22;9999;48.780;9.146;2023-04-24T01:37:13;10.60;99.90
7512;DHT22;9999;48.780;9.146;2023-04-24T01:39:42;10.70;99.90
7512;DHT22;9999;48.780;9.146;2023-04-24T01:42:09;10.50;99.90
7512;DHT22;9999;48.780;9.146;2023-04-24T01:44:36;10.50;99.90
7512;DHT22;9999;48.780;9.146;2023-04-24T01:47:03;10.50;99.90
7512;DHT22;9999;48.780;9.146;2023-04-24T01:49:30;10.50;99.90
7512;DHT22;9999;48.780;9.146;2023-04-24T01:51:57;10.50;99.90
7512;DHT22;9999;48.780;9.146;2023-04-24T01:54:23;10.50;99.90
7512;DHT22;9999;48.780;9.146;2023-04-24T01:56:52;10.40;99.90
7512;DHT22;9999;48.780;9.146;2023-04-24T01:59:20;10.40;99.90
7512;DHT22;9999;48.780;9.146;2023-04-24T02:01:48;10.50;99.90
7512;DHT22;9999;48.780;9.146;2023-04-24T02:04:18;10.50;99.90
7512;DHT22;9999;48.780;9.146;2023-04-24T02:06:45;10.50;99.90
7512;DHT22;9999;48.780;9.146;2023-04-24T02:09:12;10.50;99.90
7512;DHT22;9999;48.780;9.146;2023-04-24T02:11:39;10.40;99.90
7512;DHT22;9999;48.780;9.146;2023-04-24T02:14:07;10.50;99.90
7512;DHT22;9999;48.780;9.146;2023-04-24T02:16:34;10.40;99.90
7512;DHT22;9999;48.780;9.146;2023-04-24T02:19:01;10.40;99.90
7512;DHT22;9999;48.780;9.146;2023-04-24T02:21:28;10.50;99.90
7512;DHT22;9999;48.780;9.146;2023-04-24T02:23:56;10.50;99.90
7512;DHT22;9999;48.780;9.146;2023-04-24T02:26:23;10.50;99.90
7512;DHT22;9999;48.780;9.146;2023-04-24T02:28:51;10.50;99.90
7512;DHT22;9999;48.780;9.146;2023-04-24T02:31:21;10.40;99.90
7512;DHT22;9999;48.780;9.146;2023-04-24T02:33:48;10.40;99.90
7512;DHT22;9999;48.780;9.146;2023-04-24T02:36:15;10.40;99.90
7512;DHT22;9999;48.780;9.146;2023-04-24T02:38:41;10.40;99.90
7512;DHT22;9999;48.780;9.146;2023-04-24T02:41:09;10.40;99.90
7512;DHT22;9999;48.780;9.146;2023-04-24T02:43:36;10.40;99.90
7512;DHT22;9999;48.780;9.146;2023-04-24T02:46:03;10.40;99.90
7512;DHT22;9999;48.780;9.146;2023-04-24T02:48:31;10.50;99.90
7512;DHT22;9999;48.780;9.146;2023-04-24T02:50:58;10.40;99.90
7512;DHT22;9999;48.780;9.146;2023-04-24T02:53:25;10.40;99.90
7512;DHT22;9999;48.780;9.146;2023-04-24T02:55:52;10.40;99.90
7512;DHT22;9999;48.780;9.146;2023-04-24T02:58:18;10.40;99.90
7512;DHT22;9999;48.780;9.146;2023-04-24T03:00:46;10.40;99.90
7512;DHT22;9999;48.780;9.146;2023-04-24T03:03:13;10.30;99.90
7512;DHT22;9999;48.780;9.146;2023-04-24T03:05:41;10.30;99.90
7512;DHT22;9999;48.780;9.146;2023-04-24T03:08:08;10.20;99.90
7512;DHT22;9999;48.780;9.146;2023-04-24T03:10:35;10.20;99.90
7512;DHT22;9999;48.780;9.146;2023-04-24T03:13:02;10.20;99.90
7512;DHT22;9999;48.780;9.146;2023-04-24T03:15:29;10.10;99.90
7512;DHT22;9999;48.780;9.146;2023-04-24T03:17:56;10.10;99.90
7512;DHT22;9999;48.780;9.146;2023-04-24T03:20:23;10.10;99.90
7512;DHT22;9999;48.780;9.146;2023-04-24T03:22:51;10.10;99.90
7512;DHT22;9999;48.780;9.146;2023-04-24T03:25:19;10.10;99.90
7512;DHT22;9999;48.780;9.146;2023-04-24T03:27:45;10.10;99.90
7512;DHT22;9999;48.780;9.146;2023-04-24T03:30:24;10.00;99.90
7512;DHT22;9999;48.780;9.146;2023-04-24T03:32:56;9.90;99.90
7512;DHT22;9999;48.780;9.146;2023-04-24T03:35:27;10.00;99.90
7512;DHT22;9999;48.780;9.146;2023-04-24T03:37:56;10.00;99.90
7512;DHT22;9999;48.780;9.146;2023-04-24T03:40:41;10.00;99.90
7512;DHT22;9999;48.780;9.146;2023-04-24T03:43:30;9.90;99.90
7512;DHT22;9999;48.780;9.146;2023-04-24T03:45:59;9.90;99.90
7512;DHT22;9999;48.780;9.146;2023-04-24T03:48:27;10.00;99.90
7512;DHT22;9999;48.780;9.146;2023-04-24T03:50:53;10.00;99.90
7512;DHT22;9999;48.780;9.146;2023-04-24T03:53:22;9.90;99.90
7512;DHT22;9999;48.780;9.146;2023-04-24T03:55:49;9.90;99.90
7512;DHT22;9999;48.780;9.146;2023-04-24T03:58:16;9.90;99.90
7512;DHT22;9999;48.780;9.146;2023-04-24T04:00:43;9.80;99.90
7512;DHT22;9999;48.780;9.146;2023-04-24T04:03:32;9.80;99.90
7512;DHT22;9999;48.780;9.146;2023-04-24T04:05:59;9.70;99.90
7512;DHT22;9999;48.780;9.146;2023-04-24T04:08:27;9.70;99.90
7512;DHT22;9999;48.780;9.146;2023-04-24T04:10:54;9.70;99.90
7512;DHT22;9999;48.780;9.146;2023-04-24T04:13:22;9.70;99.90
7512;DHT22;9999;48.780;9.146;2023-04-24T04:15:49;9.70;99.90
7512;DHT22;9999;48.780;9.146;2023-04-24T04:18:16;9.80;99.90
7512;DHT22;9999;48.780;9.146;2023-04-24T04:20:42;9.90;99.90
7512;DHT22;9999;48.780;9.146;2023-04-24T04:23:12;9.90;99.90
7512;DHT22;9999;48.780;9.146;2023-04-24T04:25:56;9.80;99.90
7512;DHT22;9999;48.780;9.146;2023-04-24T04:28:30;9.90;99.90
7512;DHT22;9999;48.780;9.146;2023-04-24T04:30:57;9.90;99.90
7512;DHT22;9999;48.780;9.146;2023-04-24T04:33:24;9.80;99.90
7512;DHT22;9999;48.780;9.146;2023-04-24T04:35:52;9.80;99.90
7512;DHT22;9999;48.780;9.146;2023-04-24T04:38:19;9.70;99.90
7512;DHT22;9999;48.780;9.146;2023-04-24T04:40:53;9.70;99.90
7512;DHT22;9999;48.780;9.146;2023-04-24T04:43:24;9.70;99.90
7512;DHT22;9999;48.780;9.146;2023-04-24T04:45:53;9.70;99.90
7512;DHT22;9999;48.780;9.146;2023-04-24T04:48:53;9.60;99.90
7512;DHT22;9999;48.780;9.146;2023-04-24T04:51:22;9.50;99.90
7512;DHT22;9999;48.780;9.146;2023-04-24T04:53:49;9.40;99.90
7512;DHT22;9999;48.780;9.146;2023-04-24T04:56:16;9.40;99.90
7512;DHT22;9999;48.780;9.146;2023-04-24T04:58:46;9.40;99.90
7512;DHT22;9999;48.780;9.146;2023-04-24T05:01:15;9.50;99.90
7512;DHT22;9999;48.780;9.146;2023-04-24T05:03:45;9.40;99.90
7512;DHT22;9999;48.780;9.146;2023-04-24T05:06:14;9.30;99.90
7512;DHT22;9999;48.780;9.146;2023-04-24T05:08:42;9.30;99.90
7512;DHT22;9999;48.780;9.146;2023-04-24T05:11:18;9.30;99.90
7512;DHT22;9999;48.780;9.146;2023-04-24T05:13:47;9.40;99.90
7512;DHT22;9999;48.780;9.146;2023-04-24T05:16:22;9.30;99.90
7512;DHT22;9999;48.780;9.146;2023-04-24T05:18:52;9.30;99.90
7512;DHT22;9999;48.780;9.146;2023-04-24T05:21:23;9.30;99.90
7512;DHT22;9999;48.780;9.146;2023-04-24T05:23:51;9.30;99.90
7512;DHT22;9999;48.780;9.146;2023-04-24T05:26:30;9.40;99.90
7512;DHT22;9999;48.780;9.146;2023-04-24T05:29:00;9.50;99.90
7512;DHT22;9999;48.780;9.146;2023-04-24T05:31:26;9.50;99.90
7512;DHT22;9999;48.780;9.146;2023-04-24T05:33:54;9.40;99.90
7512;DHT22;9999;48.780;9.146;2023-04-24T05:36:21;9.50;99.90
7512;DHT22;9999;48.780;9.146;2023-04-24T05:38:48;9.40;99.90
7512;DHT22;9999;48.780;9.146;2023-04-24T05:41:15;9.50;99.90
7512;DHT22;9999;48.780;9.146;2023-04-24T05:43:41;9.50;99.90
7512;DHT22;9999;48.780;9.146;2023-04-24T05:46:10;9.50;99.90
7512;DHT22;9999;48.780;9.146;2023-04-24T05:48:38;9.50;99.90
7512;DHT22;9999;48.780;9.146;2023-04-24T05:51:05;9.40;99.90
7512;DHT22;9999;48.780;9.146;2023-04-24T05:53:32;9.40;99.90
7512;DHT22;9999;48.780;9.146;2023-04-24T05:55:59;9.50;99.90
7512;DHT22;9999;48.780;9.146;2023-04-24T05:58:26;9.50;99.90
7512;DHT22;9999;48.780;9.146;2023-04-24T06:00:53;9.50;99.90
7512;DHT22;9999;48.780;9.146;2023-04-24T06:03:22;9.50;99.90
7512;DHT22;9999;48.780;9.146;2023-04-24T06:05:49;9.50;99.90
7512;DHT22;9999;48.780;9.146;2023-04-24T06:08:16;9.50;99.90
7512;DHT22;9999;48.780;9.146;2023-04-24T06:10:44;9.70;99.90
7512;DHT22;9999;48.780;9.146;2023-04-24T06:13:12;9.60;99.90
7512;DHT22;9999;48.780;9.146;2023-04-24T06:15:44;9.60;99.90
7512;DHT22;9999;48.780;9.146;2023-04-24T06:18:16;9.60;99.90
7512;DHT22;9999;48.780;9.146;2023-04-24T06:20:45;9.70;99.90
7512;DHT22;9999;48.780;9.146;2023-04-24T06:23:11;9.60;99.90
7512;DHT22;9999;48.780;9.146;2023-04-24T06:25:38;9.70;99.90
7512;DHT22;9999;48.780;9.146;2023-04-24T06:28:05;9.90;99.90
7512;DHT22;9999;48.780;9.146;2023-04-24T06:30:32;10.10;99.90
7512;DHT22;9999;48.780;9.146;2023-04-24T06:32:58;10.30;99.90
7512;DHT22;9999;48.780;9.146;2023-04-24T06:35:25;10.40;99.90
7512;DHT22;9999;48.780;9.146;2023-04-24T06:37:53;10.50;99.90
7512;DHT22;9999;48.780;9.146;2023-04-24T06:40:21;10.60;99.90
7512;DHT22;9999;48.780;9.146;2023-04-24T06:42:48;10.80;99.90
7512;DHT22;9999;48.780;9.146;2023-04-24T06:45:15;11.00;99.90
7512;DHT22;9999;48.780;9.146;2023-04-24T06:47:42;11.20;99.90
7512;DHT22;9999;48.780;9.146;2023-04-24T06:50:09;11.40;99.90
7512;DHT22;9999;48.780;9.146;2023-04-24T06:52:36;11.60;99.90
7512;DHT22;9999;48.780;9.146;2023-04-24T06:55:06;11.90;99.90
7512;DHT22;9999;48.780;9.146;2023-04-24T06:57:33;12.00;99.90
7512;DHT22;9999;48.780;9.146;2023-04-24T07:00:00;12.20;99.90
7512;DHT22;9999;48.780;9.146;2023-04-24T07:02:27;12.20;99.90
7512;DHT22;9999;48.780;9.146;2023-04-24T07:04:53;12.50;99.90
7512;DHT22;9999;48.780;9.146;2023-04-24T07:07:20;12.70;99.90
7512;DHT22;9999;48.780;9.146;2023-04-24T07:09:49;12.80;99.90
7512;DHT22;9999;48.780;9.146;2023-04-24T07:12:17;12.50;99.90
7512;DHT22;9999;48.780;9.146;2023-04-24T07:14:46;12.10;99.90
7512;DHT22;9999;48.780;9.146;2023-04-24T07:17:12;12.00;99.90
7512;DHT22;9999;48.780;9.146;2023-04-24T07:19:40;11.60;99.90
7512;DHT22;9999;48.780;9.146;2023-04-24T07:22:07;11.60;99.90
7512;DHT22;9999;48.780;9.146;2023-04-24T07:24:33;11.60;99.90
7512;DHT22;9999;48.780;9.146;2023-04-24T07:27:00;11.40;99.90
7512;DHT22;9999;48.780;9.146;2023-04-24T07:29:29;11.20;99.90
7512;DHT22;9999;48.780;9.146;2023-04-24T07:31:58;11.30;99.90
7512;DHT22;9999;48.780;9.146;2023-04-24T07:34:25;11.20;99.90
7512;DHT22;9999;48.780;9.146;2023-04-24T07:36:51;11.40;99.90
7512;DHT22;9999;48.780;9.146;2023-04-24T07:39:18;11.70;99.90
7512;DHT22;9999;48.780;9.146;2023-04-24T07:41:45;12.20;99.90
7512;DHT22;9999;48.780;9.146;2023-04-24T07:44:12;12.30;99.90
7512;DHT22;9999;48.780;9.146;2023-04-24T07:46:40;12.40;99.90
7512;DHT22;9999;48.780;9.146;2023-04-24T07:49:07;12.20;99.90
7512;DHT22;9999;48.780;9.146;2023-04-24T07:51:33;11.90;99.90
7512;DHT22;9999;48.780;9.146;2023-04-24T07:54:03;11.60;99.90
7512;DHT22;9999;48.780;9.146;2023-04-24T07:56:31;11.60;99.90
7512;DHT22;9999;48.780;9.146;2023-04-24T07:58:58;11.40;99.90
7512;DHT22;9999;48.780;9.146;2023-04-24T08:01:25;11.40;99.90
7512;DHT22;9999;48.780;9.146;2023-04-24T08:03:53;11.30;99.90
7512;DHT22;9999;48.780;9.146;2023-04-24T08:06:21;11.30;99.90
7512;DHT22;9999;48.780;9.146;2023-04-24T08:08:47;11.20;99.90
7512;DHT22;9999;48.780;9.146;2023-04-24T08:11:14;11.20;99.90
7512;DHT22;9999;48.780;9.146;2023-04-24T08:13:41;11.30;99.90
7512;DHT22;9999;48.780;9.146;2023-04-24T08:16:07;11.10;99.90
7512;DHT22;9999;48.780;9.146;2023-04-24T08:18:34;11.20;99.90
7512;DHT22;9999;48.780;9.146;2023-04-24T08:21:03;11.30;99.90
7512;DHT22;9999;48.780;9.146;2023-04-24T08:23:30;11.30;99.90
7512;DHT22;9999;48.780;9.146;2023-04-24T08:25:56;11.50;99.90
7512;DHT22;9999;48.780;9.146;2023-04-24T08:28:24;11.60;99.90
7512;DHT22;9999;48.780;9.146;2023-04-24T08:30:51;11.90;99.90
7512;DHT22;9999;48.780;9.146;2023-04-24T08:33:20;12.00;99.90
7512;DHT22;9999;48.780;9.146;2023-04-24T08:35:46;12.00;99.90
7512;DHT22;9999;48.780;9.146;2023-04-24T08:38:15;12.00;99.90
7512;DHT22;9999;48.780;9.146;2023-04-24T08:40:42;11.80;99.90
7512;DHT22;9999;48.780;9.146;2023-04-24T08:43:11;11.70;99.90
7512;DHT22;9999;48.780;9.146;2023-04-24T08:45:39;11.60;99.90
7512;DHT22;9999;48.780;9.146;2023-04-24T08:48:06;11.40;99.90
7512;DHT22;9999;48.780;9.146;2023-04-24T08:50:34;11.30;99.90
7512;DHT22;9999;48.780;9.146;2023-04-24T08:53:01;11.20;99.90
7512;DHT22;9999;48.780;9.146;2023-04-24T08:55:30;11.20;99.90
7512;DHT22;9999;48.780;9.146;2023-04-24T08:57:59;11.10;99.90
7512;DHT22;9999;48.780;9.146;2023-04-24T09:00:26;11.40;99.90
7512;DHT22;9999;48.780;9.146;2023-04-24T09:02:53;11.60;99.90
7512;DHT22;9999;48.780;9.146;2023-04-24T09:05:21;11.60;99.90
7512;DHT22;9999;48.780;9.146;2023-04-24T09:07:53;11.40;99.90
7512;DHT22;9999;48.780;9.146;2023-04-24T09:10:21;11.30;99.90
7512;DHT22;9999;48.780;9.146;2023-04-24T09:12:50;11.20;99.90
7512;DHT22;9999;48.780;9.146;2023-04-24T09:15:18;11.10;99.90
7512;DHT22;9999;48.780;9.146;2023-04-24T09:17:46;11.00;99.90
7512;DHT22;9999;48.780;9.146;2023-04-24T09:20:13;10.90;99.90
7512;DHT22;9999;48.780;9.146;2023-04-24T09:22:40;10.90;99.90
7512;DHT22;9999;48.780;9.146;2023-04-24T09:25:09;10.70;99.90
7512;DHT22;9999;48.780;9.146;2023-04-24T09:27:41;10.50;99.90
7512;DHT22;9999;48.780;9.146;2023-04-24T09:30:11;10.40;99.90
7512;DHT22;9999;48.780;9.146;2023-04-24T09:32:38;10.10;99.90
7512;DHT22;9999;48.780;9.146;2023-04-24T09:35:07;10.10;99.90
7512;DHT22;9999;48.780;9.146;2023-04-24T09:37:38;10.00;99.90
7512;DHT22;9999;48.780;9.146;2023-04-24T09:40:13;10.00;99.90
7512;DHT22;9999;48.780;9.146;2023-04-24T09:45:11;10.30;99.90
7512;DHT22;9999;48.780;9.146;2023-04-24T09:47:38;10.60;99.90
7512;DHT22;9999;48.780;9.146;2023-04-24T09:50:13;10.80;99.90
7512;DHT22;9999;48.780;9.146;2023-04-24T09:52:42;10.90;99.90
7512;DHT22;9999;48.780;9.146;2023-04-24T09:55:14;11.00;99.90
7512;DHT22;9999;48.780;9.146;2023-04-24T09:57:49;11.00;99.90
7512;DHT22;9999;48.780;9.146;2023-04-24T10:00:24;11.00;99.90
7512;DHT22;9999;48.780;9.146;2023-04-24T10:02:57;11.30;99.90
7512;DHT22;9999;48.780;9.146;2023-04-24T10:05:27;11.50;99.90
7512;DHT22;9999;48.780;9.146;2023-04-24T10:07:57;11.60;99.90
7512;DHT22;9999;48.780;9.146;2023-04-24T10:10:23;11.80;99.90
7512;DHT22;9999;48.780;9.146;2023-04-24T10:12:51;11.80;99.90
7512;DHT22;9999;48.780;9.146;2023-04-24T10:15:18;11.90;99.90
7512;DHT22;9999;48.780;9.146;2023-04-24T10:17:49;12.20;99.90
7512;DHT22;9999;48.780;9.146;2023-04-24T10:20:19;12.40;99.90
7512;DHT22;9999;48.780;9.146;2023-04-24T10:22:48;12.60;99.90
7512;DHT22;9999;48.780;9.146;2023-04-24T10:25:19;13.00;99.90
7512;DHT22;9999;48.780;9.146;2023-04-24T10:27:47;13.10;99.90
7512;DHT22;9999;48.780;9.146;2023-04-24T10:30:15;13.00;99.90
7512;DHT22;9999;48.780;9.146;2023-04-24T10:32:42;13.10;99.90
7512;DHT22;9999;48.780;9.146;2023-04-24T10:35:12;12.80;99.90
7512;DHT22;9999;48.780;9.146;2023-04-24T10:37:42;12.50;99.90
7512;DHT22;9999;48.780;9.146;2023-04-24T10:40:10;12.30;99.90
7512;DHT22;9999;48.780;9.146;2023-04-24T10:42:40;12.20;99.90
7512;DHT22;9999;48.780;9.146;2023-04-24T10:45:16;12.00;99.90
7512;DHT22;9999;48.780;9.146;2023-04-24T10:47:56;11.90;99.90
7512;DHT22;9999;48.780;9.146;2023-04-24T10:50:25;11.90;99.90
7512;DHT22;9999;48.780;9.146;2023-04-24T10:52:52;11.80;99.90
7512;DHT22;9999;48.780;9.146;2023-04-24T10:55:41;11.80;99.90
7512;DHT22;9999;48.780;9.146;2023-04-24T10:58:08;11.70;99.90
7512;DHT22;9999;48.780;9.146;2023-04-24T11:00:36;11.70;99.90
7512;DHT22;9999;48.780;9.146;2023-04-24T11:03:04;11.80;99.90
7512;DHT22;9999;48.780;9.146;2023-04-24T11:05:53;11.80;99.90
7512;DHT22;9999;48.780;9.146;2023-04-24T11:08:23;11.70;99.90
7512;DHT22;9999;48.780;9.146;2023-04-24T11:10:59;11.70;99.90
7512;DHT22;9999;48.780;9.146;2023-04-24T11:13:31;11.60;99.90
7512;DHT22;9999;48.780;9.146;2023-04-24T11:16:17;11.60;99.90
7512;DHT22;9999;48.780;9.146;2023-04-24T11:18:50;11.70;99.90
7512;DHT22;9999;48.780;9.146;2023-04-24T11:21:22;11.80;99.90
7512;DHT22;9999;48.780;9.146;2023-04-24T11:23:49;11.80;99.90
7512;DHT22;9999;48.780;9.146;2023-04-24T11:26:18;11.80;99.90
7512;DHT22;9999;48.780;9.146;2023-04-24T11:28:46;11.90;99.90
7512;DHT22;9999;48.780;9.146;2023-04-24T11:31:39;12.10;99.90
7512;DHT22;9999;48.780;9.146;2023-04-24T11:34:10;12.50;99.90
7512;DHT22;9999;48.780;9.146;2023-04-24T11:36:40;12.60;99.90
7512;DHT22;9999;48.780;9.146;2023-04-24T11:39:07;12.90;99.90
7512;DHT22;9999;48.780;9.146;2023-04-24T11:41:33;12.90;99.90
7512;DHT22;9999;48.780;9.146;2023-04-24T11:44:01;12.90;99.90
7512;DHT22;9999;48.780;9.146;2023-04-24T11:46:29;12.60;99.90
7512;DHT22;9999;48.780;9.146;2023-04-24T11:48:57;12.30;99.90
7512;DHT22;9999;48.780;9.146;2023-04-24T11:51:24;12.10;99.90
7512;DHT22;9999;48.780;9.146;2023-04-24T11:53:53;11.80;99.90
7512;DHT22;9999;48.780;9.146;2023-04-24T11:56:21;11.60;99.90
7512;DHT22;9999;48.780;9.146;2023-04-24T11:58:48;11.50;99.90
7512;DHT22;9999;48.780;9.146;2023-04-24T12:01:15;12.00;99.90
7512;DHT22;9999;48.780;9.146;2023-04-24T12:03:41;12.40;99.90
7512;DHT22;9999;48.780;9.146;2023-04-24T12:06:13;12.60;99.90
7512;DHT22;9999;48.780;9.146;2023-04-24T12:08:40;12.90;99.90
7512;DHT22;9999;48.780;9.146;2023-04-24T12:11:08;12.90;99.90
7512;DHT22;9999;48.780;9.146;2023-04-24T12:13:35;12.80;99.90
7512;DHT22;9999;48.780;9.146;2023-04-24T12:16:03;12.40;99.90
7512;DHT22;9999;48.780;9.146;2023-04-24T12:18:31;12.30;99.90
7512;DHT22;9999;48.780;9.146;2023-04-24T12:21:16;12.10;99.90
7512;DHT22;9999;48.780;9.146;2023-04-24T12:23:43;12.00;99.90
7512;DHT22;9999;48.780;9.146;2023-04-24T12:26:12;11.90;99.90
7512;DHT22;9999;48.780;9.146;2023-04-24T12:28:39;11.80;99.90
7512;DHT22;9999;48.780;9.146;2023-04-24T12:31:06;12.00;99.90
7512;DHT22;9999;48.780;9.146;2023-04-24T12:33:34;12.20;99.90
7512;DHT22;9999;48.780;9.146;2023-04-24T12:36:02;12.30;99.90
7512;DHT22;9999;48.780;9.146;2023-04-24T12:38:29;12.30;99.90
7512;DHT22;9999;48.780;9.146;2023-04-24T12:41:03;12.20;99.90
7512;DHT22;9999;48.780;9.146;2023-04-24T12:43:32;12.40;99.90
7512;DHT22;9999;48.780;9.146;2023-04-24T12:45:59;12.70;99.90
7512;DHT22;9999;48.780;9.146;2023-04-24T12:48:26;12.80;99.90
7512;DHT22;9999;48.780;9.146;2023-04-24T12:50:53;12.80;99.90
7512;DHT22;9999;48.780;9.146;2023-04-24T12:53:21;12.80;99.90
7512;DHT22;9999;48.780;9.146;2023-04-24T12:55:47;12.60;99.90
7512;DHT22;9999;48.780;9.146;2023-04-24T12:58:19;12.60;99.90
7512;DHT22;9999;48.780;9.146;2023-04-24T13:00:48;12.30;99.90
7512;DHT22;9999;48.780;9.146;2023-04-24T13:03:15;12.10;99.90
7512;DHT22;9999;48.780;9.146;2023-04-24T13:05:42;12.00;99.90
7512;DHT22;9999;48.780;9.146;2023-04-24T13:08:09;11.70;99.90
7512;DHT22;9999;48.780;9.146;2023-04-24T13:10:36;11.50;99.90
7512;DHT22;9999;48.780;9.146;2023-04-24T13:13:03;11.60;99.90
7512;DHT22;9999;48.780;9.146;2023-04-24T13:15:30;11.70;99.90
7512;DHT22;9999;48.780;9.146;2023-04-24T13:17:58;11.90;99.90
7512;DHT22;9999;48.780;9.146;2023-04-24T13:20:25;11.90;99.90
7512;DHT22;9999;48.780;9.146;2023-04-24T13:22:51;11.90;99.90
7512;DHT22;9999;48.780;9.146;2023-04-24T13:25:18;12.10;99.90
7512;DHT22;9999;48.780;9.146;2023-04-24T13:27:46;12.40;99.90
7512;DHT22;9999;48.780;9.146;2023-04-24T13:30:13;12.60;99.90
7512;DHT22;9999;48.780;9.146;2023-04-24T13:32:39;12.60;99.90
7512;DHT22;9999;48.780;9.146;2023-04-24T13:35:08;12.40;99.90
7512;DHT22;9999;48.780;9.146;2023-04-24T13:37:35;12.40;99.90
7512;DHT22;9999;48.780;9.146;2023-04-24T13:40:02;12.40;99.90
7512;DHT22;9999;48.780;9.146;2023-04-24T13:42:31;12.30;99.90
7512;DHT22;9999;48.780;9.146;2023-04-24T13:44:58;12.30;99.90
7512;DHT22;9999;48.780;9.146;2023-04-24T13:47:25;12.10;99.90
7512;DHT22;9999;48.780;9.146;2023-04-24T13:49:51;11.70;99.90
7512;DHT22;9999;48.780;9.146;2023-04-24T13:52:20;11.20;99.90
7512;DHT22;9999;48.780;9.146;2023-04-24T13:54:47;10.70;99.90
7512;DHT22;9999;48.780;9.146;2023-04-24T13:57:14;10.30;99.90
7512;DHT22;9999;48.780;9.146;2023-04-24T13:59:42;10.20;99.90
7512;DHT22;9999;48.780;9.146;2023-04-24T14:02:09;10.30;99.90
7512;DHT22;9999;48.780;9.146;2023-04-24T14:04:35;10.50;99.90
7512;DHT22;9999;48.780;9.146;2023-04-24T14:07:02;10.90;99.90
7512;DHT22;9999;48.780;9.146;2023-04-24T14:09:30;10.80;99.90
7512;DHT22;9999;48.780;9.146;2023-04-24T14:11:57;10.90;99.90
7512;DHT22;9999;48.780;9.146;2023-04-24T14:14:24;11.00;99.90
7512;DHT22;9999;48.780;9.146;2023-04-24T14:16:51;10.90;99.90
7512;DHT22;9999;48.780;9.146;2023-04-24T14:19:17;11.00;99.90
7512;DHT22;9999;48.780;9.146;2023-04-24T14:21:44;11.30;99.90
7512;DHT22;9999;48.780;9.146;2023-04-24T14:24:11;11.40;99.90
7512;DHT22;9999;48.780;9.146;2023-04-24T14:26:39;11.50;99.90
7512;DHT22;9999;48.780;9.146;2023-04-24T14:29:06;11.50;99.90
7512;DHT22;9999;48.780;9.146;2023-04-24T14:31:32;11.60;99.90
7512;DHT22;9999;48.780;9.146;2023-04-24T14:33:59;11.80;99.90
7512;DHT22;9999;48.780;9.146;2023-04-24T14:36:26;11.90;99.90
7512;DHT22;9999;48.780;9.146;2023-04-24T14:38:53;12.00;99.90
7512;DHT22;9999;48.780;9.146;2023-04-24T14:41:19;12.00;99.90
7512;DHT22;9999;48.780;9.146;2023-04-24T14:43:47;12.00;99.90
7512;DHT22;9999;48.780;9.146;2023-04-24T14:46:14;11.70;99.90
7512;DHT22;9999;48.780;9.146;2023-04-24T14:48:41;11.50;99.90
7512;DHT22;9999;48.780;9.146;2023-04-24T14:51:08;11.30;99.90
7512;DHT22;9999;48.780;9.146;2023-04-24T14:53:35;11.10;99.90
7512;DHT22;9999;48.780;9.146;2023-04-24T14:56:01;11.10;99.90
7512;DHT22;9999;48.780;9.146;2023-04-24T14:58:28;11.30;99.90
7512;DHT22;9999;48.780;9.146;2023-04-24T15:00:56;11.50;99.90
7512;DHT22;9999;48.780;9.146;2023-04-24T15:03:23;11.70;99.90
7512;DHT22;9999;48.780;9.146;2023-04-24T15:05:52;12.10;99.90
7512;DHT22;9999;48.780;9.146;2023-04-24T15:08:18;12.00;99.90
7512;DHT22;9999;48.780;9.146;2023-04-24T15:10:46;11.70;99.90
7512;DHT22;9999;48.780;9.146;2023-04-24T15:13:13;11.60;99.90
7512;DHT22;9999;48.780;9.146;2023-04-24T15:15:39;11.40;99.90
7512;DHT22;9999;48.780;9.146;2023-04-24T15:18:08;11.40;99.90
7512;DHT22;9999;48.780;9.146;2023-04-24T15:20:36;11.30;99.90
7512;DHT22;9999;48.780;9.146;2023-04-24T15:23:04;11.20;99.90
7512;DHT22;9999;48.780;9.146;2023-04-24T15:25:31;11.10;99.90
7512;DHT22;9999;48.780;9.146;2023-04-24T15:27:58;11.00;99.90
7512;DHT22;9999;48.780;9.146;2023-04-24T15:30:26;10.90;99.90
7512;DHT22;9999;48.780;9.146;2023-04-24T15:32:52;10.90;99.90
7512;DHT22;9999;48.780;9.146;2023-04-24T15:35:21;10.80;99.90
7512;DHT22;9999;48.780;9.146;2023-04-24T15:37:48;10.70;99.90
7512;DHT22;9999;48.780;9.146;2023-04-24T15:40:14;10.80;99.90
7512;DHT22;9999;48.780;9.146;2023-04-24T15:42:42;10.60;99.90
7512;DHT22;9999;48.780;9.146;2023-04-24T15:45:10;10.50;99.90
7512;DHT22;9999;48.780;9.146;2023-04-24T15:47:37;10.30;99.90
7512;DHT22;9999;48.780;9.146;2023-04-24T15:50:05;10.30;99.90
7512;DHT22;9999;48.780;9.146;2023-04-24T15:52:35;10.20;99.90
7512;DHT22;9999;48.780;9.146;2023-04-24T15:55:03;10.10;99.90
7512;DHT22;9999;48.780;9.146;2023-04-24T15:57:30;10.10;99.90
7512;DHT22;9999;48.780;9.146;2023-04-24T15:59:57;10.20;99.90
7512;DHT22;9999;48.780;9.146;2023-04-24T16:02:24;10.30;99.90
7512;DHT22;9999;48.780;9.146;2023-04-24T16:04:51;10.40;99.90
7512;DHT22;9999;48.780;9.146;2023-04-24T16:07:19;10.50;99.90
7512;DHT22;9999;48.780;9.146;2023-04-24T16:09:47;10.50;99.90
7512;DHT22;9999;48.780;9.146;2023-04-24T16:12:13;10.60;99.90
7512;DHT22;9999;48.780;9.146;2023-04-24T16:14:40;10.60;99.90